YWSG weather

Watts Bridge Airport
Queensland, Australia

Public forecast

Using degrees Celsius for public forecast. Weather courtesy of forecast.io.

METAR (pilot weather report)

Closest report is RAAF Base Amberley, 35.2 nm (65.2 km) SSE. Retrieved 2019/04/19 14:07 UTC (42 minutes ago):

YAMB 191407Z AUTO 19006KT 9999 -SHRA BKN022 BKN036 BKN060 20/19 Q1022 RESHRA

TAF (pilot weather forecast)

Forecast is more than 12 hours old.

Closest forecast is RAAF Base Amberley, 35.2 nm (65.2 km) SSE. Retrieved 2019/04/18 18:00 UTC (21 hours ago):

TAF YAMB 181653Z 1818/1912 16005KT 9999 FEW025 SCT035 FM182300 14012KT 9999 -SHRA SCT035 BKN050 INTER 1900/1912 VRB15G25KT 5000 -SHRA BKN020 BKN035